createdAt,value
2022-10-17T06:33:30.000Z,0.943359
2022-10-17T06:33:50.000Z,46.129883
2022-10-17T06:34:11.000Z,38.495117
2022-10-17T06:34:31.000Z,44.593750
2022-10-17T06:34:51.000Z,34.082031
2022-10-17T06:35:11.000Z,40.739258
2022-10-17T06:35:32.000Z,55.276367
2022-10-17T06:35:52.000Z,60.761719
2022-10-17T06:36:12.000Z,52.536133
2022-10-17T06:36:32.000Z,55.688477
2022-10-17T06:36:53.000Z,42.742188
2022-10-17T06:37:13.000Z,27.956055
2022-10-17T06:37:33.000Z,29.600586
2022-10-17T06:37:54.000Z,70.756836
2022-10-17T06:38:14.000Z,86.594727
2022-10-17T06:38:34.000Z,60.082031
2022-10-17T06:38:54.000Z,63.764648
2022-10-17T06:39:15.000Z,66.719727
2022-10-17T06:39:35.000Z,64.571289
2022-10-17T06:39:55.000Z,31.652344
2022-10-17T06:40:15.000Z,28.282227
2022-10-17T06:40:36.000Z,14.525391
2022-10-17T06:40:56.000Z,0.319336
2022-10-17T06:41:16.000Z,33.360352
2022-10-17T06:41:36.000Z,36.618164
2022-10-17T06:41:57.000Z,29.092773
2022-10-17T06:42:17.000Z,61.429688
2022-10-17T06:42:37.000Z,87.633789
2022-10-17T06:42:57.000Z,96.089844
2022-10-17T06:43:18.000Z,32.987305
2022-10-17T06:43:38.000Z,1.044922
2022-10-17T06:43:58.000Z,5.320312
2022-10-17T06:44:18.000Z,4.640625
2022-10-17T13:29:30.000Z,0.960938
2022-10-17T13:29:50.000Z,41.215820
2022-10-17T13:30:15.000Z,78.311523
2022-10-17T13:30:46.000Z,14.676758
2022-10-17T13:31:07.000Z,65.190430
2022-10-17T13:31:27.000Z,49.460938
2022-10-17T13:31:53.000Z,7.389648
2022-10-17T13:32:45.000Z,3.263672
2022-10-17T13:33:05.000Z,40.803711
2022-10-17T13:33:25.000Z,43.036133
2022-10-17T13:33:45.000Z,37.954102
2022-10-17T13:34:06.000Z,36.048828
2022-10-17T13:34:26.000Z,25.252930
2022-10-17T13:34:46.000Z,33.094727
2022-10-17T13:35:06.000Z,52.363281
2022-10-17T13:35:27.000Z,93.910156
2022-10-17T13:35:47.000Z,74.704102
2022-10-17T13:36:07.000Z,37.048828
2022-10-17T13:36:28.000Z,31.716797
2022-10-17T13:36:48.000Z,30.390625
2022-10-17T13:37:08.000Z,29.828125
2022-10-17T13:37:28.000Z,33.799805
2022-10-17T13:37:49.000Z,28.539062
2022-10-17T13:38:09.000Z,24.971680
2022-10-17T13:38:29.000Z,28.966797
2022-10-17T13:38:49.000Z,21.110352
2022-10-17T13:39:10.000Z,26.347656
2022-10-17T13:39:30.000Z,17.518555
2022-10-17T13:39:50.000Z,23.183594
2022-10-17T13:40:10.000Z,22.583984
2022-10-17T13:40:31.000Z,31.627930
2022-10-17T13:40:51.000Z,25.877930
2022-10-17T13:41:11.000Z,27.837891
2022-10-17T13:41:31.000Z,32.121094
2022-10-17T13:41:52.000Z,39.088867
2022-10-17T13:42:12.000Z,23.294922
2022-10-17T13:42:32.000Z,27.603516
2022-10-17T13:42:52.000Z,71.392578
2022-10-17T13:43:13.000Z,51.234375
2022-10-17T13:43:33.000Z,0.583008
2022-10-17T13:43:53.000Z,0.199219
2022-10-17T13:44:14.000Z,25.198242
2022-10-17T13:44:34.000Z,51.899414
2022-10-17T13:44:54.000Z,54.636719
2022-10-17T13:45:14.000Z,75.099609
2022-10-17T13:45:35.000Z,62.566406
2022-10-17T13:45:55.000Z,38.239258
2022-10-17T13:46:15.000Z,22.116211
2022-10-17T13:46:35.000Z,23.648438
2022-10-17T13:46:56.000Z,35.806641
2022-10-17T13:47:16.000Z,30.333984
2022-10-17T13:47:36.000Z,46.816406
2022-10-17T13:47:57.000Z,21.669922
2022-10-17T13:48:17.000Z,30.837891
2022-10-17T13:48:37.000Z,41.622070
2022-10-17T13:48:57.000Z,22.173828
2022-10-17T13:49:18.000Z,17.746094
2022-10-17T13:49:38.000Z,48.729492
2022-10-17T13:49:58.000Z,44.527344
2022-10-17T13:50:18.000Z,32.316406
2022-10-17T13:50:39.000Z,20.344727
2022-10-17T13:50:59.000Z,43.127930
2022-10-17T13:51:19.000Z,12.175781
2022-10-17T13:51:40.000Z,0.100586
2022-10-17T13:52:00.000Z,0.110352
2022-10-17T13:52:20.000Z,0.119141
2022-10-17T13:52:20.000Z,2.001953
2022-10-17T14:01:55.000Z,0.101562
2022-10-17T14:02:15.000Z,0.108398
2022-10-17T14:02:35.000Z,0.960938
2022-10-17T14:02:55.000Z,4.631836
2022-10-17T14:03:16.000Z,0.120117
2022-10-17T14:03:36.000Z,0.128906
2022-10-17T14:03:56.000Z,0.117188
2022-10-17T14:04:05.000Z,2.004883
2022-10-17T14:13:02.000Z,0.131836
2022-10-17T14:13:23.000Z,0.111328
2022-10-17T14:13:43.000Z,0.105469
2022-10-17T14:13:52.000Z,2.003906
2022-10-17T14:22:44.000Z,0.125000
2022-10-17T14:23:04.000Z,0.130859
2022-10-17T14:23:24.000Z,0.109375
2022-10-17T14:23:34.000Z,2.000977
2022-10-17T14:32:33.000Z,0.112305
2022-10-17T14:32:53.000Z,0.121094
2022-10-17T14:33:14.000Z,0.124023
2022-10-17T14:33:23.000Z,2.004883
2022-10-17T14:42:13.000Z,0.112305
2022-10-17T14:42:34.000Z,0.118164
2022-10-17T14:42:54.000Z,0.125000
2022-10-17T14:43:04.000Z,2.000977
2022-10-17T14:52:08.000Z,0.114258
2022-10-17T14:52:28.000Z,0.110352
2022-10-17T14:52:49.000Z,0.138672
2022-10-17T14:52:58.000Z,2.273438
2022-10-17T14:59:29.000Z,5.251953
2022-10-17T14:59:50.000Z,8.780273
2022-10-17T15:00:10.000Z,0.218750
2022-10-17T15:00:30.000Z,0.125977
2022-10-17T15:00:50.000Z,0.128906
2022-10-17T15:01:00.000Z,2.003906
2022-10-17T15:09:54.000Z,0.155273
2022-10-17T15:10:14.000Z,0.041016
2022-10-17T15:10:35.000Z,0.122070
2022-10-17T15:10:54.000Z,2.868164
2022-10-17T15:19:56.000Z,17.142578
2022-10-17T15:20:16.000Z,0.164062
2022-10-17T15:20:37.000Z,0.158203
2022-10-17T15:20:57.000Z,0.127930
2022-10-17T15:21:06.000Z,2.001953
2022-10-17T15:30:14.000Z,0.129883
2022-10-17T15:30:34.000Z,0.153320
2022-10-17T15:30:54.000Z,0.125977
2022-10-17T15:31:04.000Z,2.004883
2022-10-17T15:40:38.000Z,0.130859
2022-10-17T15:40:58.000Z,0.136719
2022-10-17T15:41:19.000Z,0.143555
2022-10-17T15:41:28.000Z,2.002930
2022-10-17T15:51:03.000Z,0.132812
2022-10-17T15:51:23.000Z,0.148438
2022-10-17T15:51:43.000Z,0.125977
2022-10-17T15:51:53.000Z,2.000977
